createdAt,value
2023-02-15T00:00:32.158Z,92.12
2023-02-15T00:01:32.122Z,92.12
2023-02-15T00:02:32.118Z,92.12
2023-02-15T00:03:32.112Z,92.22
2023-02-15T00:04:32.108Z,92.22
2023-02-15T00:05:32.098Z,92.33
2023-02-15T00:06:32.093Z,92.33
2023-02-15T00:07:32.068Z,92.43
2023-02-15T00:08:32.088Z,92.43
2023-02-15T00:09:32.054Z,92.47
2023-02-15T00:10:32.032Z,92.47
2023-02-15T00:11:32.020Z,92.47
2023-02-15T00:12:32.011Z,92.47
2023-02-15T00:13:32.011Z,92.58
2023-02-15T00:14:32.012Z,92.58
2023-02-15T00:15:31.970Z,92.68
2023-02-15T00:16:31.984Z,92.89
2023-02-15T00:17:31.950Z,92.99
2023-02-15T00:18:31.957Z,93.10
2023-02-15T00:19:31.961Z,93.20
2023-02-15T00:20:31.930Z,93.20
2023-02-15T00:21:31.910Z,93.20
2023-02-15T00:22:31.913Z,93.20
2023-02-15T00:23:31.901Z,93.20
2023-02-15T00:24:31.910Z,93.10
2023-02-15T00:25:31.889Z,93.10
2023-02-15T00:26:31.871Z,93.10
2023-02-15T00:27:31.840Z,93.10
2023-02-15T00:28:31.864Z,93.10
2023-02-15T00:29:31.820Z,93.20
2023-02-15T00:30:31.867Z,93.20
2023-02-15T00:31:31.944Z,93.20
2023-02-15T00:32:31.806Z,93.20
2023-02-15T00:33:31.788Z,93.31
2023-02-15T00:34:31.820Z,93.31
2023-02-15T00:35:31.763Z,93.31
2023-02-15T00:36:31.751Z,93.31
2023-02-15T00:37:31.743Z,93.41
2023-02-15T00:38:31.733Z,93.41
2023-02-15T00:39:31.746Z,93.41
2023-02-15T00:40:31.709Z,93.41
2023-02-15T00:41:31.683Z,93.46
2023-02-15T00:42:31.676Z,93.46
2023-02-15T00:43:31.687Z,93.46
2023-02-15T00:44:31.653Z,93.46
2023-02-15T00:45:31.696Z,93.46
2023-02-15T00:46:31.651Z,93.56
2023-02-15T00:47:31.623Z,93.52
2023-02-15T00:48:31.623Z,93.52
2023-02-15T00:49:31.595Z,93.52
2023-02-15T00:50:31.612Z,93.52
2023-02-15T00:51:31.608Z,93.62
2023-02-15T00:52:31.576Z,93.52
2023-02-15T00:53:31.553Z,93.41
2023-02-15T00:54:31.554Z,93.41
2023-02-15T00:55:31.579Z,93.46
2023-02-15T00:56:31.558Z,93.35
2023-02-15T00:57:31.521Z,93.35
2023-02-15T00:58:31.516Z,93.35
2023-02-15T00:59:31.485Z,93.46
2023-02-15T01:00:31.498Z,93.46
2023-02-15T01:01:31.512Z,93.46
2023-02-15T01:02:31.468Z,93.46
2023-02-15T01:03:31.442Z,93.52
2023-02-15T01:04:31.498Z,93.41
2023-02-15T01:05:31.428Z,93.41
2023-02-15T01:06:31.440Z,93.46
2023-02-15T01:07:31.421Z,93.46
2023-02-15T01:08:31.408Z,93.46
2023-02-15T01:09:31.384Z,93.46
2023-02-15T01:10:31.390Z,93.46
2023-02-15T01:11:31.405Z,93.35
2023-02-15T01:12:31.359Z,93.46
2023-02-15T01:13:31.361Z,93.46
2023-02-15T01:14:31.367Z,93.56
2023-02-15T01:15:31.328Z,93.56
2023-02-15T01:16:31.303Z,93.52
2023-02-15T01:17:31.319Z,93.62
2023-02-15T01:18:31.360Z,93.73
2023-02-15T01:19:38.549Z,93.73
2023-02-15T01:20:31.286Z,93.73
2023-02-15T01:21:31.272Z,93.73
2023-02-15T01:22:31.243Z,93.83
2023-02-15T01:23:32.195Z,93.93
2023-02-15T01:24:31.245Z,93.93
2023-02-15T01:25:31.244Z,94.04
2023-02-15T01:26:31.215Z,94.04
2023-02-15T01:27:31.221Z,94.04
2023-02-15T01:28:31.195Z,94.10
2023-02-15T01:29:31.196Z,94.10
2023-02-15T01:30:31.165Z,94.10
2023-02-15T01:31:31.273Z,94.10
2023-02-15T01:32:31.144Z,94.10
2023-02-15T01:33:31.135Z,94.10
2023-02-15T01:34:31.141Z,93.99
2023-02-15T01:35:31.098Z,93.93
2023-02-15T01:36:31.117Z,93.83
2023-02-15T01:37:31.108Z,93.73
2023-02-15T01:38:32.023Z,93.62
2023-02-15T01:39:31.099Z,93.62
2023-02-15T01:40:31.049Z,93.52
2023-02-15T01:41:31.028Z,93.52
2023-02-15T01:42:31.062Z,93.52
2023-02-15T01:43:31.050Z,93.52
2023-02-15T01:44:31.019Z,93.52
2023-02-15T01:45:30.999Z,93.52
2023-02-15T01:46:31.034Z,93.52
2023-02-15T01:47:30.974Z,93.56
2023-02-15T01:48:30.978Z,93.56
2023-02-15T01:49:30.994Z,93.56
2023-02-15T01:50:30.937Z,93.56
2023-02-15T01:51:30.940Z,93.56
2023-02-15T01:52:30.932Z,93.56
2023-02-15T01:53:30.906Z,93.56
2023-02-15T01:54:30.936Z,93.56
2023-02-15T01:55:30.927Z,93.56
2023-02-15T01:56:30.871Z,93.66
2023-02-15T01:57:30.897Z,93.77
2023-02-15T01:58:30.853Z,93.66
2023-02-15T01:59:30.837Z,93.77
2023-02-15T02:00:30.853Z,93.77
2023-02-15T02:01:30.953Z,93.87
2023-02-15T02:02:30.855Z,93.87
2023-02-15T02:03:30.880Z,93.87
2023-02-15T02:04:30.806Z,93.87
2023-02-15T02:05:30.789Z,93.98
2023-02-15T02:06:30.835Z,93.98
2023-02-15T02:07:30.767Z,93.98
2023-02-15T02:08:30.751Z,93.98
2023-02-15T02:09:30.728Z,93.98
2023-02-15T02:10:30.730Z,93.98
2023-02-15T02:11:30.703Z,93.87
2023-02-15T02:12:30.743Z,93.87
2023-02-15T02:13:30.685Z,93.87
2023-02-15T02:14:30.678Z,93.77
2023-02-15T02:15:30.662Z,93.81
2023-02-15T02:16:30.655Z,93.81
2023-02-15T02:17:30.673Z,93.71
2023-02-15T02:18:30.688Z,93.81
2023-02-15T02:19:30.628Z,93.81
2023-02-15T02:20:30.617Z,93.81
2023-02-15T02:21:30.605Z,93.81
2023-02-15T02:22:30.584Z,93.81
2023-02-15T02:23:30.605Z,93.81
2023-02-15T02:24:30.592Z,93.91
2023-02-15T02:25:30.582Z,93.91
2023-02-15T02:26:30.580Z,93.91
2023-02-15T02:27:30.532Z,94.02
2023-02-15T02:28:30.562Z,94.02
2023-02-15T02:29:30.544Z,94.02
2023-02-15T02:30:30.679Z,94.12
2023-02-15T02:31:30.614Z,94.12
2023-02-15T02:32:30.560Z,94.02
2023-02-15T02:33:30.469Z,94.02
2023-02-15T02:34:30.478Z,94.02
2023-02-15T02:35:30.469Z,93.96
2023-02-15T02:36:30.446Z,93.96
2023-02-15T02:37:30.433Z,93.96
2023-02-15T02:38:30.497Z,93.96
2023-02-15T02:39:30.404Z,93.96
2023-02-15T02:40:30.429Z,93.96
2023-02-15T02:41:30.423Z,93.96
2023-02-15T02:42:30.426Z,94.06
2023-02-15T02:43:30.355Z,94.17
2023-02-15T02:44:30.380Z,94.17
2023-02-15T02:45:30.385Z,94.17
2023-02-15T02:46:30.536Z,94.17
2023-02-15T02:47:30.324Z,94.17
2023-02-15T02:48:30.338Z,94.17
2023-02-15T02:49:30.312Z,94.17
2023-02-15T02:50:30.327Z,94.17
2023-02-15T02:51:30.582Z,94.21
2023-02-15T02:52:30.266Z,94.31
2023-02-15T02:53:30.295Z,94.42
2023-02-15T02:54:30.244Z,94.52
2023-02-15T02:55:30.228Z,94.52
2023-02-15T02:56:30.236Z,94.58
2023-02-15T02:57:30.209Z,94.69
2023-02-15T02:58:30.215Z,94.79
2023-02-15T02:59:30.186Z,94.79
2023-02-15T03:00:30.185Z,94.79
2023-02-15T03:01:30.211Z,94.79
2023-02-15T03:02:30.222Z,94.69
2023-02-15T03:03:30.157Z,94.69
2023-02-15T03:04:30.212Z,94.69
2023-02-15T03:05:30.133Z,94.69
2023-02-15T03:06:30.142Z,94.69
2023-02-15T03:07:30.104Z,94.58
2023-02-15T03:08:30.087Z,94.48
2023-02-15T03:09:30.091Z,94.52
2023-02-15T03:10:30.069Z,94.52
2023-02-15T03:11:30.072Z,94.52
2023-02-15T03:12:30.041Z,94.52
2023-02-15T03:13:30.041Z,94.52
2023-02-15T03:14:30.060Z,94.52
2023-02-15T03:15:30.014Z,94.52
2023-02-15T03:16:30.069Z,94.52
2023-02-15T03:17:30.005Z,94.52
2023-02-15T03:18:29.988Z,94.52
2023-02-15T03:19:29.960Z,94.52
2023-02-15T03:20:29.976Z,94.52
2023-02-15T03:21:29.953Z,94.52
2023-02-15T03:22:30.003Z,94.63
2023-02-15T03:23:29.929Z,94.63
2023-02-15T03:24:29.951Z,94.63
2023-02-15T03:25:29.909Z,94.78
2023-02-15T03:26:29.916Z,94.78
2023-02-15T03:27:29.884Z,94.78
2023-02-15T03:28:29.897Z,94.88
2023-02-15T03:29:29.960Z,94.88
2023-02-15T03:30:29.931Z,94.98
2023-02-15T03:31:31.369Z,94.98
2023-02-15T03:32:29.856Z,95.09
2023-02-15T03:33:29.837Z,94.98
2023-02-15T03:34:29.857Z,94.98
2023-02-15T03:35:29.841Z,94.98
2023-02-15T03:36:29.793Z,95.09
2023-02-15T03:37:31.218Z,95.09
2023-02-15T03:38:29.760Z,95.09
2023-02-15T03:39:29.795Z,95.19
2023-02-15T03:40:29.744Z,95.19
2023-02-15T03:41:29.764Z,95.19
2023-02-15T03:42:29.740Z,95.29
2023-02-15T03:43:29.753Z,95.29
2023-02-15T03:44:29.702Z,95.29
2023-02-15T03:45:29.709Z,95.29
2023-02-15T03:46:29.730Z,95.29
2023-02-15T03:47:29.665Z,95.29
2023-02-15T03:48:29.683Z,95.40
2023-02-15T03:49:29.646Z,95.40
2023-02-15T03:50:29.630Z,95.40
2023-02-15T03:51:29.644Z,95.50
2023-02-15T03:52:29.630Z,95.50
2023-02-15T03:53:29.689Z,95.61
2023-02-15T03:54:29.590Z,95.61
2023-02-15T03:55:29.632Z,95.61
2023-02-15T03:56:29.688Z,95.61
2023-02-15T03:57:30.556Z,95.61
2023-02-15T03:58:29.548Z,95.50
2023-02-15T03:59:29.548Z,95.61
2023-02-15T04:00:29.539Z,95.61
2023-02-15T04:01:29.553Z,95.72
2023-02-15T04:02:29.519Z,95.72
2023-02-15T04:03:29.498Z,95.72
2023-02-15T04:04:29.515Z,95.72
2023-02-15T04:05:29.518Z,95.72
2023-02-15T04:06:29.470Z,95.72
2023-02-15T04:07:29.451Z,95.72
2023-02-15T04:08:29.436Z,95.72
2023-02-15T04:09:29.426Z,95.72
2023-02-15T04:10:29.563Z,95.72
2023-02-15T04:11:29.432Z,95.61
2023-02-15T04:12:29.385Z,95.61
2023-02-15T04:13:29.562Z,95.72
2023-02-15T04:14:29.393Z,95.72
2023-02-15T04:15:29.362Z,95.72
2023-02-15T04:16:31.135Z,95.72
2023-02-15T04:17:29.334Z,95.72
2023-02-15T04:18:29.322Z,95.72
2023-02-15T04:19:29.349Z,95.72
2023-02-15T04:20:29.323Z,95.72
2023-02-15T04:21:29.313Z,95.72
2023-02-15T04:22:29.280Z,95.72
2023-02-15T04:23:29.292Z,95.72
2023-02-15T04:24:29.267Z,95.82
2023-02-15T04:25:29.321Z,95.82
2023-02-15T04:26:29.249Z,95.82
2023-02-15T04:27:30.191Z,95.86
2023-02-15T04:28:29.219Z,95.82
2023-02-15T04:29:29.211Z,95.97
2023-02-15T04:30:29.370Z,95.92
2023-02-15T04:31:29.258Z,96.03
2023-02-15T04:32:29.170Z,96.03
2023-02-15T04:33:29.171Z,96.07
2023-02-15T04:34:29.165Z,96.03
2023-02-15T04:35:29.151Z,96.13
2023-02-15T04:36:29.122Z,96.13
2023-02-15T04:37:29.280Z,96.13
2023-02-15T04:38:29.168Z,96.13
2023-02-15T04:39:29.123Z,96.23
2023-02-15T04:40:29.090Z,96.23
2023-02-15T04:41:29.077Z,96.23
2023-02-15T04:42:29.090Z,96.23
2023-02-15T04:43:29.060Z,96.23
2023-02-15T04:44:29.104Z,96.34
2023-02-15T04:45:29.098Z,96.23
2023-02-15T04:46:29.027Z,96.23
2023-02-15T04:47:29.013Z,96.34
2023-02-15T04:48:29.060Z,96.34
2023-02-15T04:49:28.985Z,96.34
2023-02-15T04:50:28.970Z,96.44
2023-02-15T04:51:28.965Z,96.55
2023-02-15T04:52:28.950Z,96.55
2023-02-15T04:53:28.966Z,96.55
2023-02-15T04:54:28.954Z,96.55
2023-02-15T04:55:28.923Z,96.55
2023-02-15T04:56:28.911Z,96.55
2023-02-15T04:57:28.907Z,96.55
2023-02-15T04:58:28.927Z,96.55
2023-02-15T04:59:28.880Z,96.44
2023-02-15T05:00:28.859Z,96.44
2023-02-15T05:01:28.994Z,96.44
2023-02-15T05:02:28.874Z,96.44
2023-02-15T05:03:28.842Z,96.44
2023-02-15T05:04:28.872Z,96.44
2023-02-15T05:05:28.814Z,96.44
2023-02-15T05:06:28.814Z,96.44
2023-02-15T05:07:28.815Z,96.44
2023-02-15T05:08:28.799Z,96.44
2023-02-15T05:09:28.820Z,96.44
2023-02-15T05:10:28.775Z,96.34
2023-02-15T05:11:28.744Z,96.34
2023-02-15T05:12:28.734Z,96.23
2023-02-15T05:13:28.730Z,96.13
2023-02-15T05:14:28.763Z,96.13
2023-02-15T05:15:28.702Z,96.13
2023-02-15T05:16:28.767Z,96.03
2023-02-15T05:17:28.700Z,96.03
2023-02-15T05:18:28.736Z,96.07
2023-02-15T05:19:28.697Z,96.07
2023-02-15T05:20:28.656Z,96.17
2023-02-15T05:21:28.636Z,96.17
2023-02-15T05:22:28.629Z,96.13
2023-02-15T05:23:28.609Z,96.17
2023-02-15T05:24:28.604Z,96.23
2023-02-15T05:25:28.617Z,96.34
2023-02-15T05:26:28.591Z,96.34
2023-02-15T05:27:28.585Z,96.44
2023-02-15T05:28:28.562Z,96.44
2023-02-15T05:29:28.593Z,96.44
2023-02-15T05:30:28.743Z,96.55
2023-02-15T05:31:28.922Z,96.55
2023-02-15T05:32:28.645Z,96.66
2023-02-15T05:33:28.514Z,96.66
2023-02-15T05:34:28.493Z,96.66
2023-02-15T05:35:28.504Z,96.66
2023-02-15T05:36:28.522Z,96.66
2023-02-15T05:37:28.474Z,96.66
2023-02-15T05:38:28.449Z,96.66
2023-02-15T05:39:28.446Z,96.66
2023-02-15T05:40:28.424Z,96.66
2023-02-15T05:41:28.434Z,96.66
2023-02-15T05:42:28.465Z,96.55
2023-02-15T05:43:28.409Z,96.55
2023-02-15T05:44:28.395Z,96.55
2023-02-15T05:45:28.407Z,96.55
2023-02-15T05:46:28.486Z,96.55
2023-02-15T05:47:28.376Z,96.44
2023-02-15T05:48:29.335Z,96.44
2023-02-15T05:49:28.356Z,96.34
2023-02-15T05:50:28.329Z,96.38
2023-02-15T05:51:28.356Z,96.49
2023-02-15T05:52:28.321Z,96.49
2023-02-15T05:53:28.334Z,96.49
2023-02-15T05:54:28.312Z,96.49
2023-02-15T05:55:28.313Z,96.49
2023-02-15T05:56:28.270Z,96.49
2023-02-15T05:57:28.328Z,96.49
2023-02-15T05:58:28.245Z,96.44
2023-02-15T05:59:28.273Z,96.55
2023-02-15T06:00:28.229Z,96.55
2023-02-15T06:01:28.236Z,96.55
2023-02-15T06:02:28.254Z,96.66
2023-02-15T06:03:28.244Z,96.66
2023-02-15T06:04:28.188Z,96.76
2023-02-15T06:05:28.169Z,96.76
2023-02-15T06:06:28.154Z,96.86
2023-02-15T06:07:28.150Z,96.86
2023-02-15T06:08:28.283Z,96.86
2023-02-15T06:09:28.141Z,96.97
2023-02-15T06:10:28.102Z,96.97
2023-02-15T06:11:28.095Z,96.97
2023-02-15T06:12:28.087Z,96.97
2023-02-15T06:13:28.091Z,96.97
2023-02-15T06:14:28.086Z,97.07
2023-02-15T06:15:28.100Z,97.07
2023-02-15T06:16:28.044Z,97.03
2023-02-15T06:17:28.096Z,97.03
2023-02-15T06:18:28.020Z,97.13
2023-02-15T06:19:28.023Z,97.03
2023-02-15T06:20:28.021Z,97.03
2023-02-15T06:21:27.986Z,97.03
2023-02-15T06:22:28.037Z,97.03
2023-02-15T06:23:27.975Z,97.03
2023-02-15T06:24:28.925Z,97.03
2023-02-15T06:25:27.963Z,97.03
2023-02-15T06:26:27.942Z,97.03
2023-02-15T06:27:27.957Z,97.03
2023-02-15T06:28:27.922Z,97.03
2023-02-15T06:29:27.962Z,97.13
2023-02-15T06:30:27.933Z,97.03
2023-02-15T06:31:27.959Z,97.03
2023-02-15T06:32:27.913Z,97.03
2023-02-15T06:33:27.877Z,97.03
2023-02-15T06:34:27.843Z,97.03
2023-02-15T06:35:27.846Z,97.03
2023-02-15T06:36:27.830Z,97.03
2023-02-15T06:37:27.839Z,97.03
2023-02-15T06:38:27.821Z,97.03
2023-02-15T06:39:27.803Z,97.03
2023-02-15T06:40:27.784Z,97.03
2023-02-15T06:41:27.779Z,96.92
2023-02-15T06:42:27.780Z,96.92
2023-02-15T06:43:27.807Z,96.92
2023-02-15T06:44:27.745Z,96.92
2023-02-15T06:45:27.742Z,96.92
2023-02-15T06:46:27.770Z,96.92
2023-02-15T06:47:27.708Z,96.82
2023-02-15T06:48:27.700Z,96.82
2023-02-15T06:49:27.708Z,96.82
2023-02-15T06:50:27.705Z,96.82
2023-02-15T06:51:27.699Z,96.82
2023-02-15T06:52:27.667Z,96.82
2023-02-15T06:53:27.647Z,96.71
2023-02-15T06:54:27.649Z,96.71
2023-02-15T06:55:27.638Z,96.67
2023-02-15T06:56:27.614Z,96.67
2023-02-15T06:57:27.610Z,96.67
2023-02-15T06:58:27.591Z,96.67
2023-02-15T06:59:27.600Z,96.67
2023-02-15T07:00:27.580Z,96.56
2023-02-15T07:01:27.648Z,96.56
2023-02-15T07:02:27.554Z,96.56
2023-02-15T07:03:27.538Z,96.46
2023-02-15T07:04:27.572Z,96.42
2023-02-15T07:05:27.520Z,96.46
2023-02-15T07:06:27.508Z,96.31
2023-02-15T07:07:27.559Z,96.31
2023-02-15T07:08:27.476Z,96.31
2023-02-15T07:09:27.480Z,96.31
2023-02-15T07:10:27.462Z,96.21
2023-02-15T07:11:27.452Z,96.21
2023-02-15T07:12:28.405Z,96.21
2023-02-15T07:13:27.446Z,96.11
2023-02-15T07:14:28.971Z,96.11
2023-02-15T07:15:27.405Z,96.00
2023-02-15T07:16:27.418Z,95.89
2023-02-15T07:17:35.357Z,95.75
2023-02-15T07:18:28.401Z,95.75
2023-02-15T07:19:27.362Z,95.64
2023-02-15T07:20:27.364Z,95.54
2023-02-15T07:21:27.489Z,95.43
2023-02-15T07:22:27.334Z,95.43
2023-02-15T07:23:27.305Z,95.33
2023-02-15T07:24:27.311Z,95.23
2023-02-15T07:25:27.305Z,95.23
2023-02-15T07:26:27.286Z,95.23
2023-02-15T07:27:27.307Z,95.12
2023-02-15T07:28:27.263Z,95.12
2023-02-15T07:29:27.260Z,94.98
2023-02-15T07:30:27.345Z,94.87
2023-02-15T07:31:27.240Z,94.87
2023-02-15T07:32:27.308Z,94.76
2023-02-15T07:33:27.201Z,94.76
2023-02-15T07:34:27.187Z,94.66
2023-02-15T07:35:27.194Z,94.56
2023-02-15T07:36:27.169Z,94.56
2023-02-15T07:37:27.190Z,94.45
2023-02-15T07:38:27.165Z,94.31
2023-02-15T07:39:27.146Z,94.31
2023-02-15T07:40:27.126Z,94.20
2023-02-15T07:41:27.173Z,94.10
2023-02-15T07:42:27.139Z,93.99
2023-02-15T07:43:27.109Z,93.89
2023-02-15T07:44:27.070Z,93.79
2023-02-15T07:45:27.094Z,93.68
2023-02-15T07:46:27.137Z,93.68
2023-02-15T07:47:27.089Z,93.58
2023-02-15T07:48:27.064Z,93.48
2023-02-15T07:49:27.029Z,93.37
2023-02-15T07:50:27.032Z,93.23
2023-02-15T07:51:27.008Z,93.12
2023-02-15T07:52:27.032Z,93.12
2023-02-15T07:53:26.998Z,93.01
2023-02-15T07:54:27.027Z,93.01
2023-02-15T07:55:27.017Z,93.12
2023-02-15T07:56:26.950Z,93.07
2023-02-15T07:57:26.940Z,92.97
2023-02-15T07:58:26.955Z,92.86
2023-02-15T07:59:26.922Z,92.66
2023-02-15T08:00:26.924Z,92.55
2023-02-15T08:01:26.927Z,92.45
2023-02-15T08:02:26.947Z,92.35
2023-02-15T08:03:26.920Z,92.24
2023-02-15T08:04:26.892Z,92.14
2023-02-15T08:05:26.852Z,92.03
2023-02-15T08:06:26.851Z,91.89
2023-02-15T08:07:26.853Z,91.78
2023-02-15T08:08:26.820Z,91.68
2023-02-15T08:09:26.884Z,91.58
2023-02-15T08:10:26.806Z,91.47
2023-02-15T08:11:26.807Z,91.43
2023-02-15T08:12:26.809Z,91.43
2023-02-15T08:13:26.787Z,91.22
2023-02-15T08:14:26.783Z,91.12
2023-02-15T08:15:26.776Z,90.81
2023-02-15T08:16:26.799Z,90.70
2023-02-15T08:17:26.761Z,90.50
2023-02-15T08:18:26.726Z,90.35
2023-02-15T08:19:26.732Z,90.14
2023-02-15T08:20:26.704Z,90.04
2023-02-15T08:21:26.691Z,89.83
2023-02-15T08:22:26.720Z,89.73
2023-02-15T08:23:26.673Z,89.62
2023-02-15T08:24:26.670Z,89.37
2023-02-15T08:25:26.645Z,89.06
2023-02-15T08:26:26.655Z,88.85
2023-02-15T08:27:26.625Z,88.65
2023-02-15T08:28:26.644Z,88.44
2023-02-15T08:29:26.589Z,88.23
2023-02-15T08:30:26.649Z,87.99
2023-02-15T08:31:26.640Z,87.78
2023-02-15T08:32:26.670Z,87.68
2023-02-15T08:33:26.632Z,87.57
2023-02-15T08:34:26.570Z,87.47
2023-02-15T08:35:26.539Z,87.37
2023-02-15T08:36:26.536Z,87.26
2023-02-15T08:37:26.517Z,87.16
2023-02-15T08:38:26.504Z,87.12
2023-02-15T08:39:26.505Z,87.01
2023-02-15T08:40:26.496Z,86.91
2023-02-15T08:41:26.478Z,86.80
2023-02-15T08:42:26.505Z,86.60
2023-02-15T08:43:26.447Z,86.39
2023-02-15T08:44:26.447Z,86.29
2023-02-15T08:45:26.515Z,86.15
2023-02-15T08:46:26.415Z,85.83
2023-02-15T08:47:26.396Z,85.73
2023-02-15T08:48:26.441Z,85.52
2023-02-15T08:49:26.384Z,85.31
2023-02-15T08:50:26.388Z,85.11
2023-02-15T08:51:26.368Z,84.86
2023-02-15T08:52:26.363Z,84.75
2023-02-15T08:53:26.330Z,84.55
2023-02-15T08:54:26.351Z,84.34
2023-02-15T08:55:26.380Z,84.03
2023-02-15T08:56:26.298Z,83.83
2023-02-15T08:57:26.327Z,83.62
2023-02-15T08:58:26.291Z,83.47
2023-02-15T08:59:26.265Z,83.37
2023-02-15T09:00:26.261Z,83.26
2023-02-15T09:01:26.274Z,83.06
2023-02-15T09:02:26.316Z,83.06
2023-02-15T09:03:26.262Z,82.95
2023-02-15T09:04:26.223Z,82.60
2023-02-15T09:05:26.200Z,82.40
2023-02-15T09:06:26.200Z,82.19
2023-02-15T09:07:26.199Z,81.99
2023-02-15T09:08:26.189Z,81.74
2023-02-15T09:09:26.188Z,81.54
2023-02-15T09:10:26.246Z,81.43
2023-02-15T09:11:26.138Z,81.33
2023-02-15T09:12:26.181Z,81.02
2023-02-15T09:13:26.123Z,80.81
2023-02-15T09:14:26.126Z,80.71
2023-02-15T09:15:26.080Z,80.57
2023-02-15T09:16:26.144Z,80.26
2023-02-15T09:17:26.132Z,79.94
2023-02-15T09:18:26.082Z,79.74
2023-02-15T09:19:26.101Z,79.53
2023-02-15T09:20:26.068Z,79.29
2023-02-15T09:21:26.023Z,79.08
2023-02-15T09:22:26.013Z,78.98
2023-02-15T09:23:27.205Z,78.88
2023-02-15T09:24:25.994Z,78.67
2023-02-15T09:25:26.009Z,78.46
2023-02-15T09:26:25.992Z,78.46
2023-02-15T09:27:26.916Z,78.46
2023-02-15T09:28:25.969Z,78.32
2023-02-15T09:29:25.991Z,78.32
2023-02-15T09:30:26.078Z,78.22
2023-02-15T09:31:26.044Z,78.22
2023-02-15T09:32:25.912Z,78.22
2023-02-15T09:33:25.894Z,77.98
2023-02-15T09:34:25.885Z,77.67
2023-02-15T09:35:25.893Z,77.56
2023-02-15T09:36:25.881Z,77.36
2023-02-15T09:37:25.852Z,77.25
2023-02-15T09:38:25.848Z,77.15
2023-02-15T09:39:25.845Z,76.94
2023-02-15T09:40:25.850Z,76.81
2023-02-15T09:41:25.805Z,76.81
2023-02-15T09:42:25.802Z,76.60
2023-02-15T09:43:25.790Z,76.29
2023-02-15T09:44:25.793Z,76.18
2023-02-15T09:45:25.756Z,76.18
2023-02-15T09:46:25.758Z,76.18
2023-02-15T09:47:25.781Z,76.18
2023-02-15T09:48:25.732Z,75.98
2023-02-15T09:49:25.743Z,75.77
2023-02-15T09:50:25.732Z,75.63
2023-02-15T09:51:25.743Z,75.53
2023-02-15T09:52:25.679Z,75.32
2023-02-15T09:53:25.699Z,75.32
2023-02-15T09:54:25.669Z,75.22
2023-02-15T09:55:25.677Z,75.01
2023-02-15T09:56:25.647Z,74.91
2023-02-15T09:57:25.644Z,74.60
2023-02-15T09:58:25.611Z,74.40
2023-02-15T09:59:25.610Z,74.29
2023-02-15T10:00:25.588Z,73.98
2023-02-15T10:01:25.736Z,73.85
2023-02-15T10:02:25.593Z,73.85
2023-02-15T10:03:25.561Z,73.95
2023-02-15T10:04:25.577Z,73.85
2023-02-15T10:05:25.542Z,73.64
2023-02-15T10:06:25.573Z,73.60
2023-02-15T10:07:25.513Z,73.50
2023-02-15T10:08:25.501Z,73.30
2023-02-15T10:09:25.507Z,73.19
2023-02-15T10:10:25.503Z,72.99
2023-02-15T10:11:25.507Z,72.88
2023-02-15T10:12:25.537Z,72.75
2023-02-15T10:13:25.443Z,72.85
2023-02-15T10:14:25.461Z,72.64
2023-02-15T10:15:25.437Z,72.54
2023-02-15T10:16:25.519Z,72.54
2023-02-15T10:17:25.404Z,72.54
2023-02-15T10:18:25.437Z,72.13
2023-02-15T10:19:26.628Z,71.89
2023-02-15T10:20:25.380Z,71.69
2023-02-15T10:21:25.389Z,71.69
2023-02-15T10:22:25.373Z,71.78
2023-02-15T10:23:46.352Z,71.69
2023-02-15T10:24:25.388Z,71.78
2023-02-15T10:25:25.334Z,71.78
2023-02-15T10:26:25.337Z,71.58
2023-02-15T10:27:25.290Z,71.37
2023-02-15T10:28:25.319Z,71.14
2023-02-15T10:29:25.294Z,71.03
2023-02-15T10:30:25.332Z,70.83
2023-02-15T10:31:25.379Z,70.72
2023-02-15T10:32:25.334Z,70.62
2023-02-15T10:33:25.253Z,70.52
2023-02-15T10:34:25.227Z,70.52
2023-02-15T10:35:25.228Z,70.42
2023-02-15T10:36:25.255Z,70.28
2023-02-15T10:37:25.186Z,70.07
2023-02-15T10:38:25.194Z,70.07
2023-02-15T10:39:25.170Z,70.07
2023-02-15T10:40:25.151Z,70.07
2023-02-15T10:41:25.150Z,69.87
2023-02-15T10:42:25.179Z,69.97
2023-02-15T10:43:25.124Z,69.97
2023-02-15T10:44:25.124Z,70.18
2023-02-15T10:45:25.099Z,70.25
2023-02-15T10:46:25.177Z,70.14
2023-02-15T10:47:25.086Z,70.04
2023-02-15T10:48:25.105Z,69.94
2023-02-15T10:49:25.063Z,69.73
2023-02-15T10:50:25.057Z,69.53
2023-02-15T10:51:25.021Z,69.42
2023-02-15T10:52:25.033Z,69.09
2023-02-15T10:53:25.063Z,68.77
2023-02-15T10:54:25.034Z,68.77
2023-02-15T10:55:24.991Z,68.77
2023-02-15T10:56:24.990Z,68.67
2023-02-15T10:57:24.984Z,68.77
2023-02-15T10:58:25.007Z,68.88
2023-02-15T10:59:24.949Z,68.77
2023-02-15T11:00:24.936Z,68.37
2023-02-15T11:01:24.996Z,68.16
2023-02-15T11:02:24.925Z,68.02
2023-02-15T11:03:24.907Z,68.02
2023-02-15T11:04:24.905Z,68.13
2023-02-15T11:05:24.913Z,68.02
2023-02-15T11:06:24.873Z,67.92
2023-02-15T11:07:24.868Z,67.82
2023-02-15T11:08:24.857Z,67.82
2023-02-15T11:09:24.849Z,67.89
2023-02-15T11:10:24.857Z,67.89
2023-02-15T11:11:24.828Z,67.89
2023-02-15T11:12:24.813Z,67.99
2023-02-15T11:13:24.835Z,67.99
2023-02-15T11:14:24.809Z,67.79
2023-02-15T11:15:24.765Z,67.86
2023-02-15T11:16:24.762Z,67.24
2023-02-15T11:17:24.746Z,67.03
2023-02-15T11:18:24.742Z,67.24
2023-02-15T11:19:24.750Z,67.24
2023-02-15T11:20:24.723Z,67.21
2023-02-15T11:21:24.734Z,67.11
2023-02-15T11:22:24.695Z,66.90
2023-02-15T11:23:24.670Z,66.80
2023-02-15T11:24:24.688Z,66.28
2023-02-15T11:25:24.663Z,66.19
2023-02-15T11:26:24.685Z,66.08
2023-02-15T11:27:24.674Z,66.19
2023-02-15T11:28:24.630Z,66.08
2023-02-15T11:29:24.645Z,66.08
2023-02-15T11:30:24.623Z,66.19
2023-02-15T11:31:24.677Z,66.08
2023-02-15T11:32:24.637Z,66.05
2023-02-15T11:33:24.570Z,65.95
2023-02-15T11:34:24.572Z,65.84
2023-02-15T11:35:24.578Z,65.74
2023-02-15T11:36:24.540Z,65.84
2023-02-15T11:37:24.528Z,66.05
2023-02-15T11:38:24.539Z,65.95
2023-02-15T11:39:24.546Z,65.54
2023-02-15T11:40:24.524Z,65.23
2023-02-15T11:41:24.502Z,65.10
2023-02-15T11:42:24.473Z,65.00
2023-02-15T11:43:24.475Z,65.00
2023-02-15T11:44:24.451Z,65.00
2023-02-15T11:45:24.455Z,65.00
2023-02-15T11:46:24.511Z,65.00
2023-02-15T11:47:24.414Z,65.10
2023-02-15T11:48:24.420Z,65.00
2023-02-15T11:49:24.390Z,64.45
2023-02-15T11:50:24.390Z,64.56
2023-02-15T11:51:24.544Z,64.56
2023-02-15T11:52:24.365Z,64.25
2023-02-15T11:53:24.342Z,63.94
2023-02-15T11:54:24.361Z,63.84
2023-02-15T11:55:24.341Z,63.84
2023-02-15T11:56:24.332Z,63.81
2023-02-15T11:57:24.307Z,63.60
2023-02-15T11:58:24.330Z,63.29
2023-02-15T11:59:24.282Z,63.20
2023-02-15T12:00:24.279Z,63.29
2023-02-15T12:01:24.271Z,63.29
2023-02-15T12:02:24.311Z,63.37
2023-02-15T12:03:24.237Z,63.17
2023-02-15T12:04:24.277Z,62.96
2023-02-15T12:05:24.208Z,62.96
2023-02-15T12:06:24.184Z,62.96
2023-02-15T12:07:24.184Z,62.93
2023-02-15T12:08:24.241Z,62.73
2023-02-15T12:09:24.163Z,62.42
2023-02-15T12:10:24.174Z,62.42
2023-02-15T12:11:24.146Z,62.32
2023-02-15T12:12:24.148Z,62.32
2023-02-15T12:13:24.122Z,62.32
2023-02-15T12:14:24.114Z,62.42
2023-02-15T12:15:24.136Z,62.32
2023-02-15T12:16:24.136Z,62.18
2023-02-15T12:17:24.099Z,62.18
2023-02-15T12:18:24.068Z,62.29
2023-02-15T12:19:24.048Z,62.29
2023-02-15T12:20:24.039Z,62.26
2023-02-15T12:21:24.077Z,62.26
2023-02-15T12:22:24.017Z,61.85
2023-02-15T12:23:24.007Z,61.61
2023-02-15T12:24:23.989Z,61.31
2023-02-15T12:25:23.990Z,61.00
2023-02-15T12:26:23.978Z,60.28
2023-02-15T12:27:24.012Z,59.95
2023-02-15T12:28:23.952Z,59.55
2023-02-15T12:29:24.144Z,59.31
2023-02-15T12:30:23.975Z,59.11
2023-02-15T12:31:23.987Z,58.57
2023-02-15T12:32:23.979Z,58.26
2023-02-15T12:33:23.897Z,58.16
2023-02-15T12:34:23.898Z,57.93
2023-02-15T12:35:23.895Z,57.83
2023-02-15T12:36:23.893Z,57.62
2023-02-15T12:37:23.858Z,57.50
2023-02-15T12:38:23.830Z,57.39
2023-02-15T12:39:23.862Z,57.26
2023-02-15T12:40:23.846Z,56.73
2023-02-15T12:41:23.821Z,56.42
2023-02-15T12:42:23.804Z,56.09
2023-02-15T12:43:23.792Z,55.76
2023-02-15T12:44:23.795Z,55.73
2023-02-15T12:45:23.775Z,55.60
2023-02-15T12:46:23.789Z,55.27
2023-02-15T12:47:28.853Z,54.94
2023-02-15T12:48:24.747Z,54.31
2023-02-15T12:49:24.669Z,54.00
2023-02-15T12:50:23.726Z,53.37
2023-02-15T12:51:23.695Z,53.06
2023-02-15T12:52:23.697Z,52.64